sensor_id;sensor_type;location;lat;lon;timestamp;pressure;altitude;pressure_sealevel;temperature;humidity
66430;BME280;53242;51.694;10.006;2023-03-04T00:00:14;100206.16;;;2.57;82.20
66430;BME280;53242;51.694;10.006;2023-03-04T00:02:36;100208.66;;;2.58;82.59
66430;BME280;53242;51.694;10.006;2023-03-04T00:04:59;100202.81;;;2.66;82.17
66430;BME280;53242;51.694;10.006;2023-03-04T00:07:21;100202.63;;;2.58;82.16
66430;BME280;53242;51.694;10.006;2023-03-04T00:09:44;100193.28;;;2.55;82.38
66430;BME280;53242;51.694;10.006;2023-03-04T00:12:07;100197.00;;;2.62;82.15
66430;BME280;53242;51.694;10.006;2023-03-04T00:14:30;100185.69;;;2.52;82.48
66430;BME280;53242;51.694;10.006;2023-03-04T00:16:52;100192.81;;;2.50;82.78
66430;BME280;53242;51.694;10.006;2023-03-04T00:19:14;100190.66;;;2.55;82.60
66430;BME280;53242;51.694;10.006;2023-03-04T00:21:37;100184.88;;;2.52;82.63
66430;BME280;53242;51.694;10.006;2023-03-04T00:24:00;100183.94;;;2.53;82.59
66430;BME280;53242;51.694;10.006;2023-03-04T00:26:22;100188.31;;;2.41;82.69
66430;BME280;53242;51.694;10.006;2023-03-04T00:28:45;100186.13;;;2.57;82.44
66430;BME280;53242;51.694;10.006;2023-03-04T00:31:08;100187.78;;;2.58;82.18
66430;BME280;53242;51.694;10.006;2023-03-04T00:33:31;100187.03;;;2.68;82.02
66430;BME280;53242;51.694;10.006;2023-03-04T00:35:53;100177.47;;;2.68;82.04
66430;BME280;53242;51.694;10.006;2023-03-04T00:38:15;100188.00;;;2.67;81.77
66430;BME280;53242;51.694;10.006;2023-03-04T00:40:38;100192.81;;;2.71;81.83
66430;BME280;53242;51.694;10.006;2023-03-04T00:43:01;100191.69;;;2.64;82.11
66430;BME280;53242;51.694;10.006;2023-03-04T00:45:24;100186.22;;;2.67;82.26
66430;BME280;53242;51.694;10.006;2023-03-04T00:47:47;100186.50;;;2.64;82.30
66430;BME280;53242;51.694;10.006;2023-03-04T00:50:09;100183.88;;;2.64;82.01
66430;BME280;53242;51.694;10.006;2023-03-04T00:52:32;100184.69;;;2.65;81.95
66430;BME280;53242;51.694;10.006;2023-03-04T00:54:54;100186.94;;;2.69;81.82
66430;BME280;53242;51.694;10.006;2023-03-04T00:57:17;100187.47;;;2.73;82.01
66430;BME280;53242;51.694;10.006;2023-03-04T00:59:39;100188.50;;;2.60;82.08
66430;BME280;53242;51.694;10.006;2023-03-04T01:02:02;100192.25;;;2.68;81.80
66430;BME280;53242;51.694;10.006;2023-03-04T01:04:25;100190.53;;;2.78;81.39
66430;BME280;53242;51.694;10.006;2023-03-04T01:06:48;100182.66;;;2.68;81.81
66430;BME280;53242;51.694;10.006;2023-03-04T01:09:10;100182.31;;;2.61;81.98
66430;BME280;53242;51.694;10.006;2023-03-04T01:11:33;100174.78;;;2.79;81.47
66430;BME280;53242;51.694;10.006;2023-03-04T01:13:55;100180.81;;;2.80;81.53
66430;BME280;53242;51.694;10.006;2023-03-04T01:16:17;100171.78;;;2.84;80.94
66430;BME280;53242;51.694;10.006;2023-03-04T01:18:40;100181.00;;;2.88;80.94
66430;BME280;53242;51.694;10.006;2023-03-04T01:21:05;100182.53;;;2.91;80.31
66430;BME280;53242;51.694;10.006;2023-03-04T01:23:27;100175.41;;;2.93;80.58
66430;BME280;53242;51.694;10.006;2023-03-04T01:25:49;100176.56;;;2.79;80.89
66430;BME280;53242;51.694;10.006;2023-03-04T01:28:12;100173.63;;;2.93;80.89
66430;BME280;53242;51.694;10.006;2023-03-04T01:30:34;100167.91;;;3.00;80.32
66430;BME280;53242;51.694;10.006;2023-03-04T01:32:57;100167.06;;;2.78;80.55
66430;BME280;53242;51.694;10.006;2023-03-04T01:35:19;100167.53;;;3.04;80.02
66430;BME280;53242;51.694;10.006;2023-03-04T01:37:42;100159.84;;;3.03;79.73
66430;BME280;53242;51.694;10.006;2023-03-04T01:40:05;100159.06;;;2.91;80.48
66430;BME280;53242;51.694;10.006;2023-03-04T01:42:31;100159.41;;;2.98;80.32
66430;BME280;53242;51.694;10.006;2023-03-04T01:44:55;100151.00;;;2.94;80.21
66430;BME280;53242;51.694;10.006;2023-03-04T01:47:18;100150.50;;;3.00;80.38
66430;BME280;53242;51.694;10.006;2023-03-04T01:49:41;100148.06;;;3.08;79.69
66430;BME280;53242;51.694;10.006;2023-03-04T01:52:03;100143.66;;;3.09;79.77
66430;BME280;53242;51.694;10.006;2023-03-04T01:54:25;100141.19;;;3.07;79.56
66430;BME280;53242;51.694;10.006;2023-03-04T01:56:50;100135.72;;;3.10;79.28
66430;BME280;53242;51.694;10.006;2023-03-04T01:59:16;100145.59;;;3.17;79.17
66430;BME280;53242;51.694;10.006;2023-03-04T02:01:40;100125.44;;;3.19;79.25
66430;BME280;53242;51.694;10.006;2023-03-04T02:04:04;100131.44;;;3.09;79.32
66430;BME280;53242;51.694;10.006;2023-03-04T02:06:27;100135.16;;;3.17;79.20
66430;BME280;53242;51.694;10.006;2023-03-04T02:08:49;100125.00;;;3.13;79.07
66430;BME280;53242;51.694;10.006;2023-03-04T02:11:12;100122.47;;;3.02;79.36
66430;BME280;53242;51.694;10.006;2023-03-04T02:13:35;100117.31;;;3.12;79.32
66430;BME280;53242;51.694;10.006;2023-03-04T02:15:58;100122.03;;;3.18;78.99
66430;BME280;53242;51.694;10.006;2023-03-04T02:18:22;100119.22;;;3.10;79.11
66430;BME280;53242;51.694;10.006;2023-03-04T02:21:04;100118.13;;;3.03;79.18
66430;BME280;53242;51.694;10.006;2023-03-04T02:23:45;100114.72;;;3.12;78.74
66430;BME280;53242;51.694;10.006;2023-03-04T02:28:45;100115.06;;;2.98;79.35
66430;BME280;53242;51.694;10.006;2023-03-04T02:31:30;100112.09;;;3.12;78.99
66430;BME280;53242;51.694;10.006;2023-03-04T02:33:56;100106.47;;;3.07;79.04
66430;BME280;53242;51.694;10.006;2023-03-04T02:36:19;100099.28;;;2.99;78.94
66430;BME280;53242;51.694;10.006;2023-03-04T02:38:42;100110.75;;;3.18;78.47
66430;BME280;53242;51.694;10.006;2023-03-04T02:41:05;100104.22;;;3.02;78.83
66430;BME280;53242;51.694;10.006;2023-03-04T02:43:30;100101.91;;;2.99;78.53
66430;BME280;53242;51.694;10.006;2023-03-04T02:45:53;100097.78;;;2.96;79.14
66430;BME280;53242;51.694;10.006;2023-03-04T02:48:19;100100.09;;;3.00;78.69
66430;BME280;53242;51.694;10.006;2023-03-04T02:50:48;100096.28;;;3.04;78.52
66430;BME280;53242;51.694;10.006;2023-03-04T02:53:11;100096.91;;;2.96;78.67
66430;BME280;53242;51.694;10.006;2023-03-04T02:55:34;100086.53;;;3.06;78.28
66430;BME280;53242;51.694;10.006;2023-03-04T02:57:57;100084.22;;;3.03;78.54
66430;BME280;53242;51.694;10.006;2023-03-04T03:00:19;100092.34;;;3.19;78.09
66430;BME280;53242;51.694;10.006;2023-03-04T03:02:43;100080.03;;;3.21;77.91
66430;BME280;53242;51.694;10.006;2023-03-04T03:05:06;100077.41;;;3.21;77.48
66430;BME280;53242;51.694;10.006;2023-03-04T03:07:29;100078.19;;;3.12;77.48
66430;BME280;53242;51.694;10.006;2023-03-04T03:09:52;100071.91;;;3.24;77.37
66430;BME280;53242;51.694;10.006;2023-03-04T03:12:14;100072.41;;;3.08;77.93
66430;BME280;53242;51.694;10.006;2023-03-04T03:14:37;100080.25;;;3.08;78.12
66430;BME280;53242;51.694;10.006;2023-03-04T03:17:00;100082.84;;;3.08;78.27
66430;BME280;53242;51.694;10.006;2023-03-04T03:19:23;100076.38;;;3.03;78.25
66430;BME280;53242;51.694;10.006;2023-03-04T03:21:46;100076.94;;;3.06;78.15
66430;BME280;53242;51.694;10.006;2023-03-04T03:24:08;100075.47;;;3.13;77.87
66430;BME280;53242;51.694;10.006;2023-03-04T03:26:31;100075.59;;;3.22;77.74
66430;BME280;53242;51.694;10.006;2023-03-04T03:28:53;100076.84;;;3.18;77.54
66430;BME280;53242;51.694;10.006;2023-03-04T03:31:17;100073.28;;;3.19;77.68
66430;BME280;53242;51.694;10.006;2023-03-04T03:33:42;100081.69;;;3.22;77.55
66430;BME280;53242;51.694;10.006;2023-03-04T03:36:05;100076.59;;;3.21;77.53
66430;BME280;53242;51.694;10.006;2023-03-04T03:38:28;100072.63;;;3.26;77.44
66430;BME280;53242;51.694;10.006;2023-03-04T03:40:50;100073.00;;;3.22;77.88
66430;BME280;53242;51.694;10.006;2023-03-04T03:43:13;100067.41;;;3.26;77.56
66430;BME280;53242;51.694;10.006;2023-03-04T03:45:35;100066.03;;;3.22;77.40
66430;BME280;53242;51.694;10.006;2023-03-04T03:47:58;100063.56;;;3.21;77.71
66430;BME280;53242;51.694;10.006;2023-03-04T03:50:20;100068.19;;;3.17;77.97
66430;BME280;53242;51.694;10.006;2023-03-04T03:52:42;100060.28;;;3.28;77.51
66430;BME280;53242;51.694;10.006;2023-03-04T03:55:05;100064.38;;;3.21;77.73
66430;BME280;53242;51.694;10.006;2023-03-04T03:57:28;100060.94;;;3.21;77.40
66430;BME280;53242;51.694;10.006;2023-03-04T03:59:50;100052.31;;;3.30;77.36
66430;BME280;53242;51.694;10.006;2023-03-04T04:02:13;100054.22;;;3.28;77.40
66430;BME280;53242;51.694;10.006;2023-03-04T04:04:35;100049.03;;;3.38;77.09
66430;BME280;53242;51.694;10.006;2023-03-04T04:06:58;100044.06;;;3.35;77.25
66430;BME280;53242;51.694;10.006;2023-03-04T04:09:20;100045.44;;;3.29;77.48
66430;BME280;53242;51.694;10.006;2023-03-04T04:11:42;100043.81;;;3.38;77.13
66430;BME280;53242;51.694;10.006;2023-03-04T04:14:05;100048.91;;;3.39;76.73
66430;BME280;53242;51.694;10.006;2023-03-04T04:16:27;100050.81;;;3.37;77.08
66430;BME280;53242;51.694;10.006;2023-03-04T04:18:50;100050.69;;;3.39;76.94
66430;BME280;53242;51.694;10.006;2023-03-04T04:21:13;100039.28;;;3.40;76.93
66430;BME280;53242;51.694;10.006;2023-03-04T04:23:35;100047.66;;;3.43;76.91
66430;BME280;53242;51.694;10.006;2023-03-04T04:25:58;100046.31;;;3.49;76.70
66430;BME280;53242;51.694;10.006;2023-03-04T04:28:20;100039.31;;;3.50;76.57
66430;BME280;53242;51.694;10.006;2023-03-04T04:30:43;100047.69;;;3.53;76.30
66430;BME280;53242;51.694;10.006;2023-03-04T04:33:05;100046.19;;;3.51;76.80
66430;BME280;53242;51.694;10.006;2023-03-04T04:35:28;100044.09;;;3.44;76.84
66430;BME280;53242;51.694;10.006;2023-03-04T04:37:50;100046.72;;;3.44;77.20
66430;BME280;53242;51.694;10.006;2023-03-04T04:40:12;100042.59;;;3.42;77.35
66430;BME280;53242;51.694;10.006;2023-03-04T04:42:35;100037.38;;;3.42;77.41
66430;BME280;53242;51.694;10.006;2023-03-04T04:44:57;100029.00;;;3.48;77.28
66430;BME280;53242;51.694;10.006;2023-03-04T04:47:20;100033.28;;;3.49;77.07
66430;BME280;53242;51.694;10.006;2023-03-04T04:49:42;100031.34;;;3.51;77.15
66430;BME280;53242;51.694;10.006;2023-03-04T04:52:04;100031.63;;;3.48;77.32
66430;BME280;53242;51.694;10.006;2023-03-04T04:54:27;100034.34;;;3.56;77.32
66430;BME280;53242;51.694;10.006;2023-03-04T04:56:49;100036.00;;;3.57;77.25
66430;BME280;53242;51.694;10.006;2023-03-04T04:59:12;100034.22;;;3.48;77.45
66430;BME280;53242;51.694;10.006;2023-03-04T05:01:34;100026.53;;;3.47;77.44
66430;BME280;53242;51.694;10.006;2023-03-04T05:03:57;100029.97;;;3.47;77.54
66430;BME280;53242;51.694;10.006;2023-03-04T05:06:20;100038.31;;;3.41;77.96
66430;BME280;53242;51.694;10.006;2023-03-04T05:08:43;100037.66;;;3.39;78.18
66430;BME280;53242;51.694;10.006;2023-03-04T05:11:06;100036.38;;;3.33;78.24
66430;BME280;53242;51.694;10.006;2023-03-04T05:13:28;100040.41;;;3.47;77.79
66430;BME280;53242;51.694;10.006;2023-03-04T05:15:52;100040.13;;;3.50;78.01
66430;BME280;53242;51.694;10.006;2023-03-04T05:18:14;100037.66;;;3.49;78.09
66430;BME280;53242;51.694;10.006;2023-03-04T05:20:37;100041.34;;;3.46;78.17
66430;BME280;53242;51.694;10.006;2023-03-04T05:22:59;100038.75;;;3.46;78.58
66430;BME280;53242;51.694;10.006;2023-03-04T05:25:21;100040.13;;;3.40;78.45
66430;BME280;53242;51.694;10.006;2023-03-04T05:27:44;100028.03;;;3.39;78.88
66430;BME280;53242;51.694;10.006;2023-03-04T05:30:07;100030.50;;;3.41;78.89
66430;BME280;53242;51.694;10.006;2023-03-04T05:32:29;100033.94;;;3.41;78.94
66430;BME280;53242;51.694;10.006;2023-03-04T05:34:52;100036.69;;;3.50;78.64
66430;BME280;53242;51.694;10.006;2023-03-04T05:37:14;100027.91;;;3.51;78.82
66430;BME280;53242;51.694;10.006;2023-03-04T05:39:37;100025.56;;;3.48;78.41
66430;BME280;53242;51.694;10.006;2023-03-04T05:41:59;100031.59;;;3.38;79.29
66430;BME280;53242;51.694;10.006;2023-03-04T05:44:21;100024.31;;;3.42;79.31
66430;BME280;53242;51.694;10.006;2023-03-04T05:46:44;100021.28;;;3.37;79.68
66430;BME280;53242;51.694;10.006;2023-03-04T05:49:06;100020.47;;;3.46;79.46
66430;BME280;53242;51.694;10.006;2023-03-04T05:51:29;100017.03;;;3.55;79.11
66430;BME280;53242;51.694;10.006;2023-03-04T05:53:51;100024.34;;;3.52;79.16
66430;BME280;53242;51.694;10.006;2023-03-04T05:56:16;100024.47;;;3.50;79.14
66430;BME280;53242;51.694;10.006;2023-03-04T05:58:39;100025.88;;;3.54;79.12
66430;BME280;53242;51.694;10.006;2023-03-04T06:01:02;100025.03;;;3.64;78.82
66430;BME280;53242;51.694;10.006;2023-03-04T06:03:25;100023.66;;;3.59;78.77
66430;BME280;53242;51.694;10.006;2023-03-04T06:05:47;100020.91;;;3.61;78.54
66430;BME280;53242;51.694;10.006;2023-03-04T06:08:10;100027.91;;;3.60;78.28
66430;BME280;53242;51.694;10.006;2023-03-04T06:10:33;100028.72;;;3.71;77.92
66430;BME280;53242;51.694;10.006;2023-03-04T06:12:55;100028.47;;;3.64;78.49
66430;BME280;53242;51.694;10.006;2023-03-04T06:15:18;100020.38;;;3.67;77.82
66430;BME280;53242;51.694;10.006;2023-03-04T06:17:40;100025.44;;;3.69;77.67
66430;BME280;53242;51.694;10.006;2023-03-04T06:20:03;100029.44;;;3.73;77.63
66430;BME280;53242;51.694;10.006;2023-03-04T06:22:27;100028.31;;;3.66;77.63
66430;BME280;53242;51.694;10.006;2023-03-04T06:24:49;100031.22;;;3.72;77.60
66430;BME280;53242;51.694;10.006;2023-03-04T06:27:12;100032.31;;;3.79;77.57
66430;BME280;53242;51.694;10.006;2023-03-04T06:29:34;100029.31;;;3.84;77.10
66430;BME280;53242;51.694;10.006;2023-03-04T06:31:57;100029.97;;;3.86;77.52
66430;BME280;53242;51.694;10.006;2023-03-04T06:34:19;100035.88;;;3.78;77.71
66430;BME280;53242;51.694;10.006;2023-03-04T06:36:42;100035.88;;;3.78;78.00
66430;BME280;53242;51.694;10.006;2023-03-04T06:39:06;100046.47;;;3.77;78.20
66430;BME280;53242;51.694;10.006;2023-03-04T06:41:28;100041.00;;;3.80;78.10
66430;BME280;53242;51.694;10.006;2023-03-04T06:43:53;100037.56;;;3.89;77.96
66430;BME280;53242;51.694;10.006;2023-03-04T06:46:15;100036.44;;;3.82;77.96
66430;BME280;53242;51.694;10.006;2023-03-04T06:48:37;100034.13;;;3.79;78.21
66430;BME280;53242;51.694;10.006;2023-03-04T06:51:05;100038.66;;;3.87;77.94
66430;BME280;53242;51.694;10.006;2023-03-04T06:53:27;100041.94;;;3.99;77.77
66430;BME280;53242;51.694;10.006;2023-03-04T06:55:50;100049.22;;;3.95;77.56
66430;BME280;53242;51.694;10.006;2023-03-04T06:58:12;100047.97;;;3.99;78.00
66430;BME280;53242;51.694;10.006;2023-03-04T07:00:35;100048.13;;;3.98;77.87
66430;BME280;53242;51.694;10.006;2023-03-04T07:02:58;100041.81;;;4.10;77.38
66430;BME280;53242;51.694;10.006;2023-03-04T07:05:20;100040.03;;;4.01;77.81
66430;BME280;53242;51.694;10.006;2023-03-04T07:07:43;100038.91;;;4.13;77.39
66430;BME280;53242;51.694;10.006;2023-03-04T07:10:06;100045.94;;;4.13;77.38
66430;BME280;53242;51.694;10.006;2023-03-04T07:12:29;100040.97;;;4.09;77.20
66430;BME280;53242;51.694;10.006;2023-03-04T07:14:51;100039.84;;;4.12;76.99
66430;BME280;53242;51.694;10.006;2023-03-04T07:17:13;100045.63;;;4.16;77.06
66430;BME280;53242;51.694;10.006;2023-03-04T07:19:36;100036.97;;;4.25;76.83
66430;BME280;53242;51.694;10.006;2023-03-04T07:21:59;100038.47;;;4.27;76.65
66430;BME280;53242;51.694;10.006;2023-03-04T07:24:21;100038.47;;;4.27;76.93
66430;BME280;53242;51.694;10.006;2023-03-04T07:26:43;100041.47;;;4.33;76.47
66430;BME280;53242;51.694;10.006;2023-03-04T07:29:06;100041.38;;;4.24;76.78
66430;BME280;53242;51.694;10.006;2023-03-04T07:31:31;100042.19;;;4.25;76.88
66430;BME280;53242;51.694;10.006;2023-03-04T07:33:58;100046.44;;;4.26;77.19
66430;BME280;53242;51.694;10.006;2023-03-04T07:36:21;100046.59;;;4.34;76.55
66430;BME280;53242;51.694;10.006;2023-03-04T07:38:48;100038.06;;;4.32;76.64
66430;BME280;53242;51.694;10.006;2023-03-04T07:41:11;100042.97;;;4.45;76.57
66430;BME280;53242;51.694;10.006;2023-03-04T07:43:33;100043.69;;;4.37;76.94
66430;BME280;53242;51.694;10.006;2023-03-04T07:45:58;100045.34;;;4.38;76.85
66430;BME280;53242;51.694;10.006;2023-03-04T07:48:21;100048.47;;;4.52;76.82
66430;BME280;53242;51.694;10.006;2023-03-04T07:50:44;100048.44;;;4.61;76.47
66430;BME280;53242;51.694;10.006;2023-03-04T07:53:07;100043.63;;;4.57;76.59
66430;BME280;53242;51.694;10.006;2023-03-04T07:55:29;100044.03;;;4.62;76.38
66430;BME280;53242;51.694;10.006;2023-03-04T07:57:52;100041.81;;;4.67;76.54
66430;BME280;53242;51.694;10.006;2023-03-04T08:00:15;100045.69;;;4.63;76.59
66430;BME280;53242;51.694;10.006;2023-03-04T08:02:39;100040.47;;;4.63;76.49
66430;BME280;53242;51.694;10.006;2023-03-04T08:05:01;100036.84;;;4.74;76.15
66430;BME280;53242;51.694;10.006;2023-03-04T08:07:24;100038.78;;;4.72;76.73
66430;BME280;53242;51.694;10.006;2023-03-04T08:09:47;100025.66;;;4.82;76.33
66430;BME280;53242;51.694;10.006;2023-03-04T08:12:10;100029.94;;;4.83;76.34
66430;BME280;53242;51.694;10.006;2023-03-04T08:14:33;100025.09;;;4.88;76.01
66430;BME280;53242;51.694;10.006;2023-03-04T08:16:55;100030.88;;;4.82;76.09
66430;BME280;53242;51.694;10.006;2023-03-04T08:19:17;100037.34;;;4.87;75.92
66430;BME280;53242;51.694;10.006;2023-03-04T08:21:40;100030.78;;;4.83;76.32
66430;BME280;53242;51.694;10.006;2023-03-04T08:24:03;100032.38;;;4.94;76.17
66430;BME280;53242;51.694;10.006;2023-03-04T08:26:32;100029.50;;;4.87;76.40
66430;BME280;53242;51.694;10.006;2023-03-04T08:29:01;100028.34;;;5.00;76.15
66430;BME280;53242;51.694;10.006;2023-03-04T08:31:23;100026.78;;;5.07;76.08
66430;BME280;53242;51.694;10.006;2023-03-04T08:33:46;100027.81;;;4.96;76.54
66430;BME280;53242;51.694;10.006;2023-03-04T08:36:09;100027.38;;;5.01;76.50
66430;BME280;53242;51.694;10.006;2023-03-04T08:38:31;100023.63;;;5.03;76.44
66430;BME280;53242;51.694;10.006;2023-03-04T08:40:55;100028.22;;;5.01;76.87
66430;BME280;53242;51.694;10.006;2023-03-04T08:43:17;100035.66;;;4.96;77.27
66430;BME280;53242;51.694;10.006;2023-03-04T08:45:40;100038.00;;;4.89;78.09
66430;BME280;53242;51.694;10.006;2023-03-04T08:48:02;100038.69;;;5.01;77.82
66430;BME280;53242;51.694;10.006;2023-03-04T08:50:25;100040.19;;;5.04;77.50
66430;BME280;53242;51.694;10.006;2023-03-04T08:52:48;100036.56;;;5.05;77.67
66430;BME280;53242;51.694;10.006;2023-03-04T08:55:10;100038.13;;;4.98;77.73
66430;BME280;53242;51.694;10.006;2023-03-04T08:57:33;100046.13;;;4.96;78.23
66430;BME280;53242;51.694;10.006;2023-03-04T08:59:55;100042.44;;;4.89;79.33
66430;BME280;53242;51.694;10.006;2023-03-04T09:02:18;100042.00;;;4.93;79.55
66430;BME280;53242;51.694;10.006;2023-03-04T09:04:40;100041.16;;;4.93;79.93
66430;BME280;53242;51.694;10.006;2023-03-04T09:07:02;100029.22;;;4.90;80.36
66430;BME280;53242;51.694;10.006;2023-03-04T09:09:25;100030.44;;;4.96;80.66
66430;BME280;53242;51.694;10.006;2023-03-04T09:11:47;100032.28;;;4.86;81.34
66430;BME280;53242;51.694;10.006;2023-03-04T09:14:10;100027.84;;;4.86;81.67
66430;BME280;53242;51.694;10.006;2023-03-04T09:16:33;100029.50;;;4.87;82.35
66430;BME280;53242;51.694;10.006;2023-03-04T09:18:55;100026.50;;;4.82;82.66
66430;BME280;53242;51.694;10.006;2023-03-04T09:21:17;100028.16;;;4.83;82.56
66430;BME280;53242;51.694;10.006;2023-03-04T09:23:40;100020.94;;;4.95;82.25
66430;BME280;53242;51.694;10.006;2023-03-04T09:26:26;100019.63;;;5.09;81.27
66430;BME280;53242;51.694;10.006;2023-03-04T09:28:52;100021.78;;;5.14;81.20
66430;BME280;53242;51.694;10.006;2023-03-04T09:31:15;100017.16;;;5.07;81.30
66430;BME280;53242;51.694;10.006;2023-03-04T09:33:38;100008.91;;;5.30;80.35
66430;BME280;53242;51.694;10.006;2023-03-04T09:36:02;100013.97;;;5.32;80.15
66430;BME280;53242;51.694;10.006;2023-03-04T09:38:25;100011.69;;;5.29;80.00
66430;BME280;53242;51.694;10.006;2023-03-04T09:40:48;100009.44;;;5.34;79.07
66430;BME280;53242;51.694;10.006;2023-03-04T09:43:21;100001.44;;;5.53;78.39
66430;BME280;53242;51.694;10.006;2023-03-04T09:45:56;100004.22;;;5.52;78.34
66430;BME280;53242;51.694;10.006;2023-03-04T09:48:23;100006.84;;;5.52;78.49
66430;BME280;53242;51.694;10.006;2023-03-04T09:51:20;100001.59;;;5.70;77.53
66430;BME280;53242;51.694;10.006;2023-03-04T09:56:19;100013.50;;;5.46;78.13
66430;BME280;53242;51.694;10.006;2023-03-04T09:58:48;100009.97;;;5.37;78.51
66430;BME280;53242;51.694;10.006;2023-03-04T10:03:50;100002.13;;;5.37;78.46
66430;BME280;53242;51.694;10.006;2023-03-04T10:06:20;100005.28;;;5.41;78.74
66430;BME280;53242;51.694;10.006;2023-03-04T10:09:05;99997.69;;;5.38;79.01
66430;BME280;53242;51.694;10.006;2023-03-04T10:11:36;99996.50;;;5.32;79.13
66430;BME280;53242;51.694;10.006;2023-03-04T10:16:29;100008.84;;;5.40;78.74
66430;BME280;53242;51.694;10.006;2023-03-04T10:21:39;100002.66;;;5.41;78.71
66430;BME280;53242;51.694;10.006;2023-03-04T10:24:11;100013.16;;;5.31;79.40
66430;BME280;53242;51.694;10.006;2023-03-04T10:26:35;100010.41;;;5.33;79.97
66430;BME280;53242;51.694;10.006;2023-03-04T10:28:57;100011.69;;;5.47;79.45
66430;BME280;53242;51.694;10.006;2023-03-04T10:31:29;100000.09;;;5.49;79.19
66430;BME280;53242;51.694;10.006;2023-03-04T10:33:52;100009.88;;;5.47;79.34
66430;BME280;53242;51.694;10.006;2023-03-04T10:38:57;100016.78;;;5.48;79.51
66430;BME280;53242;51.694;10.006;2023-03-04T10:41:21;100008.09;;;5.30;80.39
66430;BME280;53242;51.694;10.006;2023-03-04T10:44:00;100005.16;;;5.33;81.02
66430;BME280;53242;51.694;10.006;2023-03-04T10:46:23;100002.66;;;5.41;81.26
66430;BME280;53242;51.694;10.006;2023-03-04T10:48:46;100001.97;;;5.57;81.18
66430;BME280;53242;51.694;10.006;2023-03-04T10:51:18;99995.84;;;5.66;80.61
66430;BME280;53242;51.694;10.006;2023-03-04T10:53:42;99999.28;;;5.49;80.86
66430;BME280;53242;51.694;10.006;2023-03-04T10:56:31;99997.56;;;5.57;80.56
66430;BME280;53242;51.694;10.006;2023-03-04T11:02:26;99992.31;;;5.57;81.27
66430;BME280;53242;51.694;10.006;2023-03-04T11:04:54;100000.47;;;5.54;81.51
66430;BME280;53242;51.694;10.006;2023-03-04T11:07:17;99994.81;;;5.59;81.29
66430;BME280;53242;51.694;10.006;2023-03-04T11:09:39;99990.16;;;5.53;81.46
66430;BME280;53242;51.694;10.006;2023-03-04T11:12:07;99991.19;;;5.42;81.96
66430;BME280;53242;51.694;10.006;2023-03-04T11:14:37;99994.56;;;5.52;82.25
66430;BME280;53242;51.694;10.006;2023-03-04T11:19:37;99988.34;;;5.53;83.44
66430;BME280;53242;51.694;10.006;2023-03-04T11:22:01;99985.94;;;5.60;83.31
66430;BME280;53242;51.694;10.006;2023-03-04T11:24:27;99986.41;;;5.55;83.50
66430;BME280;53242;51.694;10.006;2023-03-04T11:27:16;99984.09;;;5.52;84.06
66430;BME280;53242;51.694;10.006;2023-03-04T11:29:42;99987.75;;;5.59;84.00
66430;BME280;53242;51.694;10.006;2023-03-04T11:32:26;99983.84;;;5.82;83.48
66430;BME280;53242;51.694;10.006;2023-03-04T11:35:07;99984.16;;;5.97;82.53
66430;BME280;53242;51.694;10.006;2023-03-04T11:37:47;99974.66;;;5.78;81.36
66430;BME280;53242;51.694;10.006;2023-03-04T11:40:20;99971.28;;;5.85;80.92
66430;BME280;53242;51.694;10.006;2023-03-04T11:42:53;99971.88;;;5.79;80.77
66430;BME280;53242;51.694;10.006;2023-03-04T11:48:11;99967.03;;;5.66;81.35
66430;BME280;53242;51.694;10.006;2023-03-04T11:51:41;99977.34;;;5.68;82.56
66430;BME280;53242;51.694;10.006;2023-03-04T11:53:51;99969.81;;;5.65;83.15
66430;BME280;53242;51.694;10.006;2023-03-04T11:56:38;99967.50;;;5.62;84.56
66430;BME280;53242;51.694;10.006;2023-03-04T12:01:39;99971.31;;;5.49;85.37
66430;BME280;53242;51.694;10.006;2023-03-04T12:04:27;99961.72;;;5.40;85.32
66430;BME280;53242;51.694;10.006;2023-03-04T12:09:39;99951.16;;;5.32;86.12
66430;BME280;53242;51.694;10.006;2023-03-04T12:15:19;99947.63;;;5.23;86.58
66430;BME280;53242;51.694;10.006;2023-03-04T12:20:15;99947.00;;;5.39;86.02
66430;BME280;53242;51.694;10.006;2023-03-04T12:23:00;99939.81;;;5.41;85.69
66430;BME280;53242;51.694;10.006;2023-03-04T12:30:40;99937.56;;;5.64;84.98
66430;BME280;53242;51.694;10.006;2023-03-04T12:33:18;99935.44;;;5.68;84.16
66430;BME280;53242;51.694;10.006;2023-03-04T12:42:20;99917.59;;;6.07;84.37
66430;BME280;53242;51.694;10.006;2023-03-04T12:44:17;99918.81;;;6.21;82.09
66430;BME280;53242;51.694;10.006;2023-03-04T12:46:43;99912.41;;;6.16;82.63
66430;BME280;53242;51.694;10.006;2023-03-04T12:52:56;99910.56;;;6.08;80.38
66430;BME280;53242;51.694;10.006;2023-03-04T12:55:29;99901.09;;;6.15;78.71
66430;BME280;53242;51.694;10.006;2023-03-04T12:57:54;99902.72;;;6.08;78.97
66430;BME280;53242;51.694;10.006;2023-03-04T13:03:22;99891.16;;;6.27;78.96
66430;BME280;53242;51.694;10.006;2023-03-04T13:06:37;99877.25;;;6.35;78.56
66430;BME280;53242;51.694;10.006;2023-03-04T13:11:37;99881.28;;;6.55;76.97
66430;BME280;53242;51.694;10.006;2023-03-04T13:14:03;99880.41;;;6.89;75.29
66430;BME280;53242;51.694;10.006;2023-03-04T13:16:48;99870.88;;;6.88;74.80
66430;BME280;53242;51.694;10.006;2023-03-04T13:19:42;99883.59;;;6.67;72.87
66430;BME280;53242;51.694;10.006;2023-03-04T13:25:38;99879.50;;;6.56;73.91
66430;BME280;53242;51.694;10.006;2023-03-04T13:32:54;99872.06;;;6.43;74.20
66430;BME280;53242;51.694;10.006;2023-03-04T13:43:45;99886.31;;;6.06;78.35
66430;BME280;53242;51.694;10.006;2023-03-04T13:48:39;99881.91;;;5.88;79.28
66430;BME280;53242;51.694;10.006;2023-03-04T13:51:02;99884.72;;;6.13;79.09
66430;BME280;53242;51.694;10.006;2023-03-04T13:56:05;99875.22;;;6.12;78.11
66430;BME280;53242;51.694;10.006;2023-03-04T13:58:28;99878.47;;;6.14;78.36